createdAt,value
2023-04-02T00:01:19.812Z,3.40
2023-04-02T00:03:53.372Z,3.30
2023-04-02T00:06:32.420Z,3.20
2023-04-02T00:09:17.622Z,2.60
2023-04-02T00:11:49.228Z,2.30
2023-04-02T00:14:35.668Z,2.70
2023-04-02T00:17:06.517Z,2.80
2023-04-02T00:19:37.771Z,2.70
2023-04-02T00:22:14.436Z,2.60
2023-04-02T00:24:44.087Z,2.20
2023-04-02T00:27:19.439Z,2.80
2023-04-02T00:29:55.821Z,2.60
2023-04-02T00:32:31.425Z,2.60
2023-04-02T00:35:00.946Z,2.00
2023-04-02T00:37:38.462Z,2.00
2023-04-02T00:40:16.736Z,1.90
2023-04-02T00:42:46.238Z,2.30
2023-04-02T00:45:28.925Z,2.30
2023-04-02T00:48:01.512Z,2.20
2023-04-02T00:50:41.612Z,2.10
2023-04-02T00:55:50.217Z,1.90
2023-04-02T00:58:39.868Z,2.40
2023-04-02T01:01:22.561Z,2.40
2023-04-02T01:03:57.979Z,1.70
2023-04-02T01:06:34.013Z,1.90
2023-04-02T01:09:41.374Z,2.10
2023-04-02T01:12:43.394Z,2.00
2023-04-02T01:15:18.974Z,1.90
2023-04-02T01:18:26.254Z,2.00
2023-04-02T01:21:17.643Z,2.00
2023-04-02T01:24:08.870Z,2.00
2023-04-02T01:26:39.126Z,2.20
2023-04-02T01:29:12.702Z,1.70
2023-04-02T01:31:42.611Z,1.90
2023-04-02T01:34:15.080Z,1.70
2023-04-02T01:37:04.573Z,2.10
2023-04-02T01:39:51.742Z,1.90
2023-04-02T01:42:53.978Z,2.10
2023-04-02T01:45:25.431Z,2.20
2023-04-02T01:47:57.105Z,2.00
2023-04-02T01:50:32.116Z,2.00
2023-04-02T01:53:14.941Z,2.10
2023-04-02T01:55:53.170Z,1.80
2023-04-02T01:58:29.686Z,1.70
2023-04-02T02:01:08.049Z,1.80
2023-04-02T02:03:45.289Z,1.90
2023-04-02T02:06:16.503Z,1.90
2023-04-02T02:08:48.811Z,2.10
2023-04-02T02:11:23.080Z,2.00
2023-04-02T02:13:56.365Z,2.30
2023-04-02T02:16:41.402Z,2.00
2023-04-02T02:19:38.972Z,2.50
2023-04-02T02:22:11.517Z,2.20
2023-04-02T02:24:43.893Z,1.90
2023-04-02T02:27:22.223Z,2.20
2023-04-02T02:30:23.997Z,1.90
2023-04-02T02:33:07.302Z,2.10
2023-04-02T02:35:50.550Z,2.20
2023-04-02T02:38:33.353Z,2.40
2023-04-02T02:41:34.765Z,2.10
2023-04-02T02:44:18.303Z,2.50
2023-04-02T02:46:58.003Z,2.40
2023-04-02T02:49:41.338Z,2.00
2023-04-02T02:52:09.712Z,2.30
2023-04-02T02:54:53.576Z,2.30
2023-04-02T02:57:28.641Z,2.50
2023-04-02T03:00:01.096Z,2.40
2023-04-02T03:02:36.021Z,2.70
2023-04-02T03:05:09.568Z,2.90
2023-04-02T03:07:40.391Z,3.00
2023-04-02T03:10:37.206Z,3.30
2023-04-02T03:13:22.505Z,3.60
2023-04-02T03:16:19.188Z,3.10
2023-04-02T03:19:25.205Z,3.20
2023-04-02T03:22:10.740Z,3.40
2023-04-02T03:24:55.027Z,3.30
2023-04-02T03:27:33.261Z,3.60
2023-04-02T03:30:27.984Z,3.70
2023-04-02T03:33:23.321Z,4.00
2023-04-02T03:36:12.577Z,4.00
2023-04-02T03:38:52.998Z,4.00
2023-04-02T03:41:40.138Z,4.80
2023-04-02T03:44:21.655Z,4.10
2023-04-02T03:46:57.209Z,4.30
2023-04-02T03:49:31.949Z,4.70
2023-04-02T03:52:16.333Z,4.70
2023-04-02T03:54:53.700Z,4.70
2023-04-02T03:57:32.978Z,4.80
2023-04-02T04:00:25.774Z,4.90
2023-04-02T04:03:03.663Z,5.00
2023-04-02T04:05:37.401Z,4.60
2023-04-02T04:08:18.699Z,4.10
2023-04-02T04:10:51.962Z,4.70
2023-04-02T04:13:29.553Z,4.50
2023-04-02T04:16:15.347Z,5.10
2023-04-02T04:19:03.565Z,4.70
2023-04-02T04:21:40.504Z,4.70
2023-04-02T04:24:21.492Z,4.40
2023-04-02T04:27:09.391Z,4.50
2023-04-02T04:30:07.087Z,3.90
2023-04-02T04:33:01.845Z,4.10
2023-04-02T04:35:50.170Z,3.60
2023-04-02T04:38:38.984Z,4.10
2023-04-02T04:44:11.500Z,4.30
2023-04-02T04:47:07.350Z,4.80
2023-04-02T04:49:56.330Z,4.60
2023-04-02T04:52:28.447Z,4.40
2023-04-02T04:55:00.811Z,3.80
2023-04-02T04:57:38.608Z,4.30
2023-04-02T05:02:58.236Z,4.00
2023-04-02T05:05:33.107Z,3.70
2023-04-02T05:08:17.775Z,3.60
2023-04-02T05:11:04.966Z,3.70
2023-04-02T05:13:43.688Z,3.50
2023-04-02T05:16:53.532Z,3.20
2023-04-02T05:19:41.280Z,3.70
2023-04-02T05:22:43.106Z,3.00
2023-04-02T05:28:10.491Z,2.80
2023-04-02T05:30:49.017Z,3.20
2023-04-02T05:33:29.082Z,3.70
2023-04-02T05:36:11.987Z,3.50
2023-04-02T05:38:49.453Z,3.40
2023-04-02T05:41:28.107Z,2.70
2023-04-02T05:44:25.338Z,2.50
2023-04-02T05:49:37.605Z,2.80
2023-04-02T05:52:15.961Z,2.70
2023-04-02T05:54:58.790Z,2.90
2023-04-02T05:57:44.542Z,2.60
2023-04-02T06:00:32.006Z,3.20
2023-04-02T06:03:14.583Z,3.20
2023-04-02T06:05:46.598Z,3.30
2023-04-02T06:08:25.401Z,2.80
2023-04-02T06:11:18.877Z,3.10
2023-04-02T06:13:47.533Z,3.10
2023-04-02T06:16:25.945Z,3.40
2023-04-02T06:18:55.504Z,2.80
2023-04-02T06:21:25.407Z,2.90
2023-04-02T06:23:59.477Z,3.20
2023-04-02T06:26:35.931Z,2.90
2023-04-02T06:29:39.659Z,3.20
2023-04-02T06:32:13.013Z,2.80
2023-04-02T06:34:46.372Z,2.70
2023-04-02T06:37:27.417Z,2.80
2023-04-02T06:40:39.125Z,3.10
2023-04-02T06:43:35.702Z,3.30
2023-04-02T06:46:54.710Z,3.20
2023-04-02T06:49:28.111Z,3.40
2023-04-02T06:52:09.498Z,3.50
2023-04-02T06:54:38.125Z,4.10
2023-04-02T06:57:13.109Z,3.30
2023-04-02T06:59:48.078Z,3.30
2023-04-02T07:02:34.543Z,3.60
2023-04-02T07:05:09.484Z,3.20
2023-04-02T07:07:43.911Z,4.50
2023-04-02T07:10:13.622Z,4.00
2023-04-02T07:12:44.962Z,4.20
2023-04-02T07:15:19.013Z,3.80
2023-04-02T07:17:47.951Z,4.00
2023-04-02T07:20:28.702Z,4.10
2023-04-02T07:23:04.498Z,4.30
2023-04-02T07:25:33.083Z,4.00
2023-04-02T07:30:35.222Z,4.40
2023-04-02T07:33:10.145Z,4.30
2023-04-02T07:35:40.143Z,4.90
2023-04-02T07:38:09.348Z,4.20
2023-04-02T07:40:38.217Z,4.00
2023-04-02T07:43:07.007Z,4.40
2023-04-02T07:45:35.560Z,3.90
2023-04-02T07:48:09.170Z,4.00
2023-04-02T07:50:47.557Z,4.00
2023-04-02T07:53:34.683Z,3.80
2023-04-02T07:58:38.018Z,4.00
2023-04-02T08:01:19.251Z,3.60
2023-04-02T08:03:48.317Z,3.70
2023-04-02T08:06:16.797Z,3.90
2023-04-02T08:08:45.359Z,4.60
2023-04-02T08:11:13.931Z,4.20
2023-04-02T08:13:42.216Z,4.10
2023-04-02T08:16:13.594Z,4.00
2023-04-02T08:18:43.994Z,3.50
2023-04-02T08:21:16.371Z,4.00
2023-04-02T08:23:45.641Z,4.00
2023-04-02T08:26:18.765Z,3.90
2023-04-02T08:28:47.050Z,3.70
2023-04-02T08:31:17.073Z,3.70
2023-04-02T08:33:45.465Z,3.60
2023-04-02T08:36:20.782Z,3.30
2023-04-02T08:38:49.285Z,3.30
2023-04-02T08:41:27.554Z,3.50
2023-04-02T08:44:27.973Z,3.90
2023-04-02T08:49:57.398Z,3.90
2023-04-02T08:52:33.986Z,4.30
2023-04-02T08:55:03.635Z,4.10
2023-04-02T08:57:46.523Z,3.80
2023-04-02T09:00:35.603Z,3.30
2023-04-02T09:03:16.367Z,3.80
2023-04-02T09:05:51.171Z,4.10
2023-04-02T09:08:25.684Z,4.00
2023-04-02T09:11:26.439Z,3.80
2023-04-02T09:13:58.790Z,4.10
2023-04-02T09:16:55.858Z,4.20
2023-04-02T09:19:32.064Z,4.70
2023-04-02T09:22:20.286Z,4.50
2023-04-02T09:25:15.702Z,4.40
2023-04-02T09:27:51.440Z,3.90
2023-04-02T09:30:32.399Z,3.70
2023-04-02T09:33:06.921Z,3.80
2023-04-02T09:35:56.667Z,4.30
2023-04-02T09:38:30.412Z,4.00
2023-04-02T09:41:07.383Z,4.10
2023-04-02T09:43:39.928Z,4.10
2023-04-02T09:46:23.326Z,4.30
2023-04-02T09:49:03.059Z,4.00
2023-04-02T09:51:36.278Z,4.30
2023-04-02T09:54:14.107Z,4.10
2023-04-02T09:57:01.274Z,3.90
2023-04-02T09:59:40.870Z,4.00
2023-04-02T10:02:29.262Z,3.80
2023-04-02T10:05:07.677Z,3.80
2023-04-02T10:07:44.362Z,3.70
2023-04-02T10:10:33.573Z,3.80
2023-04-02T10:13:20.705Z,3.50
2023-04-02T10:16:07.226Z,3.50
2023-04-02T10:18:45.251Z,3.20
2023-04-02T10:21:18.951Z,3.20
2023-04-02T10:24:16.682Z,3.50
2023-04-02T10:27:18.399Z,3.70
2023-04-02T10:29:55.912Z,3.60
2023-04-02T10:32:40.439Z,3.50
2023-04-02T10:35:11.849Z,3.60
2023-04-02T10:37:48.494Z,4.00
2023-04-02T10:43:38.361Z,3.20
2023-04-02T10:46:16.571Z,3.60
2023-04-02T10:49:11.575Z,3.60
2023-04-02T10:51:55.080Z,3.70
2023-04-02T10:54:48.573Z,3.90
2023-04-02T10:57:31.087Z,3.40
2023-04-02T11:00:04.651Z,3.80
2023-04-02T11:03:08.431Z,4.10
2023-04-02T11:05:49.731Z,4.00
2023-04-02T11:08:26.188Z,3.60
2023-04-02T11:11:24.369Z,3.30
2023-04-02T11:14:05.838Z,3.70
2023-04-02T11:16:41.698Z,3.90
2023-04-02T11:19:20.324Z,3.60
2023-04-02T11:22:18.261Z,3.70
2023-04-02T11:24:52.815Z,3.90
2023-04-02T11:27:35.120Z,3.90
2023-04-02T11:30:28.054Z,3.60
2023-04-02T11:33:44.101Z,3.70
2023-04-02T11:36:59.131Z,3.70
2023-04-02T11:39:55.601Z,3.40
2023-04-02T11:42:42.157Z,3.20
2023-04-02T11:45:23.868Z,3.50
2023-04-02T11:48:06.105Z,3.60
2023-04-02T11:50:48.306Z,3.30
2023-04-02T11:56:02.797Z,3.30
2023-04-02T11:59:24.002Z,4.00
2023-04-02T12:02:42.674Z,3.70
2023-04-02T12:05:40.602Z,3.40
2023-04-02T12:08:44.281Z,3.60
2023-04-02T12:11:40.763Z,2.90
2023-04-02T12:17:02.118Z,4.70
2023-04-02T12:19:33.729Z,4.10
2023-04-02T12:22:05.348Z,4.30
2023-04-02T12:24:36.679Z,3.90
2023-04-02T12:27:24.640Z,2.80
2023-04-02T12:30:24.085Z,3.20
2023-04-02T12:32:58.859Z,3.60
2023-04-02T12:35:38.117Z,3.20
2023-04-02T12:38:32.940Z,3.20
2023-04-02T12:41:08.435Z,3.40
2023-04-02T12:43:42.071Z,2.80
2023-04-02T12:46:17.242Z,2.80
2023-04-02T12:48:54.824Z,2.80
2023-04-02T12:51:28.875Z,3.20
2023-04-02T12:54:03.268Z,2.50
2023-04-02T12:56:36.220Z,2.60
2023-04-02T12:59:07.620Z,3.00
2023-04-02T13:01:59.406Z,2.20
2023-04-02T13:04:31.364Z,2.10
2023-04-02T13:07:07.432Z,2.70
2023-04-02T13:10:02.466Z,2.50
2023-04-02T13:12:39.059Z,2.40
2023-04-02T13:15:22.653Z,1.90
2023-04-02T13:18:08.645Z,2.10
2023-04-02T13:20:47.245Z,1.90
2023-04-02T13:23:29.393Z,2.10
2023-04-02T13:26:12.625Z,2.40
2023-04-02T13:28:43.499Z,2.20
2023-04-02T13:31:18.396Z,2.00
2023-04-02T13:33:48.877Z,2.00
2023-04-02T13:36:21.316Z,2.00
2023-04-02T13:38:52.674Z,2.10
2023-04-02T13:41:35.734Z,1.90
2023-04-02T13:44:06.827Z,2.50
2023-04-02T13:46:40.705Z,2.40
2023-04-02T13:49:23.093Z,2.20
2023-04-02T13:52:00.899Z,1.80
2023-04-02T13:55:02.085Z,1.80
2023-04-02T13:57:36.149Z,2.10
2023-04-02T14:00:08.903Z,2.30
2023-04-02T14:02:47.157Z,2.40
2023-04-02T14:05:24.390Z,2.30
2023-04-02T14:08:09.830Z,2.30
2023-04-02T14:11:11.134Z,2.30
2023-04-02T14:14:00.192Z,1.70
2023-04-02T14:17:03.532Z,2.20
2023-04-02T14:20:06.594Z,2.40
2023-04-02T14:23:06.594Z,1.80
2023-04-02T14:26:03.702Z,1.60
2023-04-02T14:28:50.870Z,1.90
2023-04-02T14:31:26.029Z,2.00
2023-04-02T14:34:29.598Z,1.70
2023-04-02T14:37:27.557Z,1.70
2023-04-02T14:40:21.917Z,1.70
2023-04-02T14:43:26.553Z,1.60
2023-04-02T14:46:08.997Z,1.80
2023-04-02T14:48:52.806Z,1.80
2023-04-02T14:51:53.337Z,1.80
2023-04-02T14:54:39.271Z,1.60
2023-04-02T14:57:25.315Z,1.20
2023-04-02T15:00:23.512Z,1.50
2023-04-02T15:03:12.323Z,1.60
2023-04-02T15:05:59.237Z,1.40
2023-04-02T15:08:58.638Z,1.80
2023-04-02T15:11:48.236Z,1.20
2023-04-02T15:14:36.149Z,1.50
2023-04-02T15:17:14.319Z,1.60
2023-04-02T15:19:46.107Z,1.60
2023-04-02T15:22:47.255Z,1.40
2023-04-02T15:26:04.013Z,2.70
2023-04-02T15:28:51.188Z,1.50
2023-04-02T15:31:31.170Z,1.90
2023-04-02T15:34:09.673Z,1.20
2023-04-02T15:37:22.922Z,1.40
2023-04-02T15:40:12.692Z,1.70
2023-04-02T15:43:09.358Z,1.60
2023-04-02T15:45:56.634Z,1.50
2023-04-02T15:48:34.550Z,1.40
2023-04-02T15:51:36.386Z,1.50
2023-04-02T15:54:31.173Z,1.40
2023-04-02T15:57:23.108Z,1.20
2023-04-02T16:00:31.299Z,1.40
2023-04-02T16:03:19.038Z,1.20
2023-04-02T16:06:04.952Z,1.20
2023-04-02T16:09:11.440Z,1.50
2023-04-02T16:11:48.036Z,1.20
2023-04-02T16:14:34.869Z,1.60
2023-04-02T16:17:25.070Z,1.70
2023-04-02T16:20:08.630Z,1.50
2023-04-02T16:22:53.357Z,1.60
2023-04-02T16:25:58.271Z,2.10
2023-04-02T16:28:50.453Z,1.20
2023-04-02T16:31:41.354Z,1.70
2023-04-02T16:34:43.854Z,1.70
2023-04-02T16:37:38.907Z,1.70
2023-04-02T16:40:30.755Z,1.40
2023-04-02T16:43:31.203Z,1.70
2023-04-02T16:46:38.847Z,1.70
2023-04-02T16:49:26.383Z,1.30
2023-04-02T16:52:34.343Z,1.40
2023-04-02T16:55:34.652Z,1.40
2023-04-02T16:58:44.696Z,1.50
2023-04-02T17:01:49.667Z,1.70
2023-04-02T17:04:55.873Z,1.40
2023-04-02T17:07:52.916Z,1.40
2023-04-02T17:10:36.710Z,1.50
2023-04-02T17:13:34.577Z,1.50
2023-04-02T17:16:15.204Z,1.50
2023-04-02T17:18:59.724Z,1.20
2023-04-02T17:21:34.174Z,1.40
2023-04-02T17:24:33.941Z,1.50
2023-04-02T17:27:15.777Z,1.30
2023-04-02T17:29:53.511Z,1.70
2023-04-02T17:32:33.671Z,1.70
2023-04-02T17:35:39.787Z,1.70
2023-04-02T17:38:20.764Z,1.70
2023-04-02T17:41:32.145Z,1.40
2023-04-02T17:44:49.239Z,1.60
2023-04-02T17:48:01.894Z,1.40
2023-04-02T17:50:38.130Z,1.60
2023-04-02T17:53:35.788Z,1.40
2023-04-02T17:56:24.509Z,1.40
2023-04-02T17:59:08.574Z,1.50
2023-04-02T18:01:53.853Z,1.40
2023-04-02T18:04:52.422Z,1.50
2023-04-02T18:07:36.103Z,1.40
2023-04-02T18:10:12.090Z,1.50
2023-04-02T18:13:09.695Z,1.40
2023-04-02T18:15:58.545Z,1.10
2023-04-02T18:18:52.475Z,1.10
2023-04-02T18:21:35.704Z,1.10
2023-04-02T18:25:06.862Z,1.20
2023-04-02T18:27:51.876Z,1.40
2023-04-02T18:30:38.158Z,1.10
2023-04-02T18:33:37.615Z,1.80
2023-04-02T18:36:17.167Z,1.20
2023-04-02T18:39:06.349Z,1.40
2023-04-02T18:41:52.044Z,1.50
2023-04-02T18:44:53.994Z,1.40
2023-04-02T18:47:46.669Z,1.30
2023-04-02T18:50:29.423Z,1.40
2023-04-02T18:53:27.946Z,1.20
2023-04-02T18:56:12.190Z,1.20
2023-04-02T18:59:06.780Z,1.40
2023-04-02T19:02:04.530Z,1.50
2023-04-02T19:04:46.538Z,1.50
2023-04-02T19:07:31.700Z,1.20
2023-04-02T19:10:26.007Z,1.20
2023-04-02T19:13:00.723Z,1.40
2023-04-02T19:15:56.699Z,1.70
2023-04-02T19:19:06.883Z,1.90
2023-04-02T19:22:13.044Z,1.30
2023-04-02T19:25:21.679Z,1.60
2023-04-02T19:28:40.284Z,1.40
2023-04-02T19:31:38.533Z,1.70
2023-04-02T19:37:03.398Z,1.40
2023-04-02T19:40:15.213Z,1.80
2023-04-02T19:43:01.121Z,1.60
2023-04-02T19:45:50.610Z,1.50
2023-04-02T19:48:50.384Z,2.20
2023-04-02T19:51:27.411Z,1.60
2023-04-02T19:54:06.926Z,1.50
2023-04-02T19:56:44.468Z,1.80
2023-04-02T19:59:24.474Z,1.80
2023-04-02T20:02:00.008Z,2.30
2023-04-02T20:04:34.830Z,1.60
2023-04-02T20:07:09.064Z,1.60
2023-04-02T20:09:45.290Z,1.70
2023-04-02T20:12:26.246Z,2.30
2023-04-02T20:14:58.679Z,1.90
2023-04-02T20:17:33.326Z,1.80
2023-04-02T20:20:11.744Z,1.90
2023-04-02T20:22:49.199Z,1.70
2023-04-02T20:25:24.376Z,2.30
2023-04-02T20:27:56.624Z,1.70
2023-04-02T20:30:36.601Z,2.10
2023-04-02T20:33:08.501Z,2.00
2023-04-02T20:35:42.878Z,2.20
2023-04-02T20:38:19.969Z,1.50
2023-04-02T20:40:58.526Z,1.90
2023-04-02T20:43:32.957Z,2.20
2023-04-02T20:46:10.843Z,2.00
2023-04-02T20:48:46.312Z,2.10
2023-04-02T20:51:47.925Z,2.50
2023-04-02T20:54:24.909Z,2.40
2023-04-02T20:56:55.817Z,2.10
2023-04-02T20:59:26.237Z,2.40
2023-04-02T21:01:56.530Z,2.80
2023-04-02T21:04:27.279Z,2.10
2023-04-02T21:06:57.962Z,2.70
2023-04-02T21:09:28.727Z,2.50
2023-04-02T21:11:59.560Z,2.50
2023-04-02T21:14:31.746Z,1.90
2023-04-02T21:17:02.122Z,2.30
2023-04-02T21:19:33.318Z,2.10
2023-04-02T21:22:05.734Z,2.20
2023-04-02T21:24:43.380Z,1.90
2023-04-02T21:27:16.635Z,2.00
2023-04-02T21:29:47.090Z,1.50
2023-04-02T21:32:21.660Z,2.00
2023-04-02T21:34:52.921Z,2.10
2023-04-02T21:37:26.042Z,2.10
2023-04-02T21:39:56.617Z,2.50
2023-04-02T21:42:29.423Z,2.30
2023-04-02T21:45:05.823Z,2.30
2023-04-02T21:47:36.845Z,1.70
2023-04-02T21:50:09.499Z,2.40
2023-04-02T21:52:40.092Z,2.30
2023-04-02T21:55:10.870Z,2.40
2023-04-02T21:57:45.051Z,2.40
2023-04-02T22:00:21.829Z,2.50
2023-04-02T22:02:52.272Z,2.20
2023-04-02T22:05:23.009Z,2.30
2023-04-02T22:07:53.712Z,2.50
2023-04-02T22:10:24.102Z,2.10
2023-04-02T22:12:54.854Z,2.20
2023-04-02T22:15:26.063Z,2.00
2023-04-02T22:17:56.755Z,2.20
2023-04-02T22:20:29.580Z,2.40
2023-04-02T22:23:01.685Z,2.20
2023-04-02T22:25:35.553Z,2.10
2023-04-02T22:28:08.312Z,2.40
2023-04-02T22:30:39.243Z,2.30
2023-04-02T22:33:11.961Z,2.40
2023-04-02T22:35:42.588Z,2.50
2023-04-02T22:38:13.223Z,2.30
2023-04-02T22:40:43.845Z,2.60
2023-04-02T22:43:14.304Z,3.30
2023-04-02T22:45:52.580Z,2.20
2023-04-02T22:48:23.194Z,2.30
2023-04-02T22:50:56.010Z,2.20
2023-04-02T22:53:29.340Z,2.60
2023-04-02T22:56:14.818Z,2.10
2023-04-02T22:58:49.070Z,2.00
2023-04-02T23:01:29.023Z,2.00
2023-04-02T23:04:01.856Z,2.10
2023-04-02T23:06:35.971Z,2.10
2023-04-02T23:09:08.850Z,1.80
2023-04-02T23:11:44.345Z,2.10
2023-04-02T23:14:16.294Z,2.20
2023-04-02T23:16:50.474Z,2.10
2023-04-02T23:19:27.129Z,1.90
2023-04-02T23:21:58.149Z,2.30
2023-04-02T23:24:38.180Z,1.90
2023-04-02T23:27:10.357Z,2.50
2023-04-02T23:29:44.570Z,2.00
2023-04-02T23:32:15.140Z,2.10
2023-04-02T23:34:45.718Z,2.10
2023-04-02T23:37:16.665Z,2.40
2023-04-02T23:39:49.817Z,2.70
2023-04-02T23:42:20.349Z,1.90
2023-04-02T23:44:50.896Z,1.90
2023-04-02T23:47:23.360Z,1.80
2023-04-02T23:49:56.577Z,2.30
2023-04-02T23:52:27.117Z,2.10
2023-04-02T23:54:57.435Z,2.70
2023-04-02T23:57:27.720Z,2.30
